Time;durP1;ratioP1;P1;durP2;ratioP2;P2;SDS_P1;SDS_P2;PMS_P1;PMS_P2;Temp;Humidity;BMP_temperature;BMP_pressure;BME280_temperature;BME280_humidity;BME280_pressure;Samples;Min_cycle;Max_cycle;Signal;HPM_P1;HPM_P2
2022/06/08 00:01:19;;;;;;;10.77;1.60;;;16.50;99.90;;;;;;5013203;28;20018;-52
2022/06/08 00:03:53;;;;;;;15.70;1.83;;;16.40;99.90;;;;;;5012634;28;20049;-52
2022/06/08 00:06:19;;;;;;;6.82;0.90;;;16.30;99.90;;;;;;5013350;28;20064;-53
2022/06/08 00:08:45;;;;;;;7.03;0.93;;;16.30;99.90;;;;;;5013072;28;20026;-51
2022/06/08 00:11:11;;;;;;;9.88;1.27;;;16.30;99.90;;;;;;5012124;28;20049;-51
2022/06/08 00:13:37;;;;;;;8.50;1.52;;;16.20;99.90;;;;;;5011638;28;20077;-56
2022/06/08 00:16:04;;;;;;;3.70;1.08;;;16.20;99.90;;;;;;5011743;28;20017;-56
2022/06/08 00:18:29;;;;;;;7.70;0.98;;;16.10;99.90;;;;;;5012945;28;20022;-56
2022/06/08 00:20:55;;;;;;;5.30;1.65;;;16.10;99.90;;;;;;5028032;28;20022;-51
2022/06/08 00:23:21;;;;;;;7.47;0.80;;;16.00;99.90;;;;;;5012935;28;20024;-53
2022/06/08 00:25:48;;;;;;;10.52;0.80;;;16.00;99.90;;;;;;5012944;28;20029;-55
2022/06/08 00:28:15;;;;;;;6.30;1.08;;;16.00;99.90;;;;;;5013140;28;20030;-53
2022/06/08 00:30:41;;;;;;;7.25;1.40;;;15.90;99.90;;;;;;5011833;28;20061;-52
2022/06/08 00:33:07;;;;;;;7.65;1.20;;;15.90;99.90;;;;;;5013036;28;20034;-52
2022/06/08 00:35:33;;;;;;;9.25;2.47;;;15.80;99.90;;;;;;5011756;28;20137;-54
2022/06/08 00:37:58;;;;;;;4.60;0.70;;;15.80;99.90;;;;;;5011527;28;20084;-53
2022/06/08 00:40:47;;;;;;;8.65;1.15;;;15.80;99.90;;;;;;5012712;28;20022;-55
2022/06/08 00:43:13;;;;;;;6.60;1.58;;;15.80;99.90;;;;;;5012528;28;20034;-51
2022/06/08 00:45:39;;;;;;;6.95;1.45;;;15.80;99.90;;;;;;5013049;28;20032;-49
2022/06/08 00:48:06;;;;;;;8.90;1.42;;;15.70;99.90;;;;;;5015106;28;20083;-56
2022/06/08 00:50:35;;;;;;;8.68;1.00;;;15.60;99.90;;;;;;5015038;28;20030;-52
2022/06/08 00:53:03;;;;;;;5.43;0.68;;;15.70;99.90;;;;;;5016835;28;20037;-51
2022/06/08 00:55:34;;;;;;;5.78;0.73;;;15.60;99.90;;;;;;5016349;28;20416;-54
2022/06/08 00:58:05;;;;;;;5.47;0.80;;;15.70;99.90;;;;;;5016213;28;20029;-52
2022/06/08 01:00:39;;;;;;;0.68;0.68;;;15.80;99.90;;;;;;5015848;28;20026;-53
2022/06/08 01:03:07;;;;;;;0.80;0.80;;;15.70;99.90;;;;;;5014759;28;20400;-57
2022/06/08 01:05:44;;;;;;;1.95;0.60;;;15.70;99.90;;;;;;5015046;28;20464;-53
2022/06/08 01:08:31;;;;;;;3.45;0.93;;;15.70;99.90;;;;;;5015483;28;20049;-55
2022/06/08 01:11:01;;;;;;;4.13;0.90;;;15.60;99.90;;;;;;5015807;28;20400;-54
2022/06/08 01:13:29;;;;;;;2.55;0.73;;;15.50;99.90;;;;;;5015882;28;20182;-51
2022/06/08 01:15:55;;;;;;;4.47;0.90;;;15.40;99.90;;;;;;5014400;28;20049;-53
2022/06/08 01:18:21;;;;;;;10.02;1.73;;;15.40;99.90;;;;;;5016021;28;20029;-54
2022/06/08 01:20:51;;;;;;;7.47;0.73;;;15.40;99.90;;;;;;5014462;28;20224;-52
2022/06/08 01:23:17;;;;;;;3.38;0.65;;;15.30;99.90;;;;;;5015534;28;20104;-53
2022/06/08 01:25:54;;;;;;;10.80;1.00;;;15.30;99.90;;;;;;5015661;28;20022;-51
2022/06/08 01:28:27;;;;;;;6.40;1.10;;;15.20;99.90;;;;;;5031691;28;20028;-52
2022/06/08 01:31:01;;;;;;;4.97;0.75;;;15.20;99.90;;;;;;5031932;28;20032;-50
2022/06/08 01:33:59;;;;;;;2.85;0.63;;;15.10;99.90;;;;;;5014212;28;20121;-51
2022/06/08 01:36:37;;;;;;;12.10;0.80;;;15.10;99.90;;;;;;5011178;28;20037;-55
2022/06/08 01:39:17;;;;;;;6.88;0.77;;;15.10;99.90;;;;;;5014127;28;20033;-53
2022/06/08 01:41:49;;;;;;;6.18;0.60;;;15.10;99.90;;;;;;5015534;28;20100;-50
2022/06/08 01:44:23;;;;;;;1.83;0.63;;;15.00;99.90;;;;;;5030593;28;20121;-52
2022/06/08 01:47:00;;;;;;;2.88;0.80;;;15.00;99.90;;;;;;5015502;28;20049;-52
2022/06/08 01:49:38;;;;;;;5.00;0.90;;;15.10;99.90;;;;;;5015231;28;20030;-56
2022/06/08 01:52:40;;;;;;;2.42;1.20;;;15.20;99.90;;;;;;5021854;28;20479;-50
2022/06/08 01:55:17;;;;;;;5.22;0.55;;;15.20;99.90;;;;;;5034670;28;20025;-53
2022/06/08 01:57:55;;;;;;;9.88;1.00;;;15.30;99.90;;;;;;5034018;28;20075;-55
2022/06/08 02:00:33;;;;;;;5.53;0.98;;;15.20;99.90;;;;;;5034794;28;20095;-53
2022/06/08 02:03:08;;;;;;;4.40;0.82;;;15.20;99.90;;;;;;5034923;28;20025;-57
2022/06/08 02:05:53;;;;;;;2.97;0.60;;;15.10;99.90;;;;;;5035096;28;20084;-53
2022/06/08 02:08:51;;;;;;;6.38;0.90;;;15.00;99.90;;;;;;5034609;28;20029;-53
2022/06/08 02:11:33;;;;;;;5.82;1.05;;;14.90;99.90;;;;;;5033358;28;20025;-52
2022/06/08 02:14:23;;;;;;;9.88;1.55;;;15.00;99.90;;;;;;5034360;28;20399;-51
2022/06/08 02:17:34;;;;;;;4.03;0.80;;;14.90;99.90;;;;;;5033555;28;20026;-52
2022/06/08 02:20:31;;;;;;;6.85;1.00;;;14.80;99.90;;;;;;5034054;28;20025;-53
2022/06/08 02:23:05;;;;;;;3.63;0.98;;;14.80;99.90;;;;;;5034490;28;20527;-54
2022/06/08 02:25:34;;;;;;;9.50;0.95;;;14.80;99.90;;;;;;5033918;28;20025;-53
2022/06/08 02:28:06;;;;;;;5.43;1.13;;;14.80;99.90;;;;;;5034227;28;20036;-53
2022/06/08 02:30:38;;;;;;;8.88;1.10;;;14.80;99.90;;;;;;5034843;28;20039;-52
2022/06/08 02:36:09;;;;;;;4.75;1.10;;;14.80;99.90;;;;;;5034375;28;20032;-51
2022/06/08 02:38:39;;;;;;;1.77;1.00;;;14.70;99.90;;;;;;5033182;28;20035;-51
2022/06/08 02:41:08;;;;;;;3.13;1.05;;;14.70;99.90;;;;;;5033236;28;20108;-53
2022/06/08 02:43:55;;;;;;;5.30;1.05;;;14.70;99.90;;;;;;5032738;28;20032;-52
2022/06/08 02:46:39;;;;;;;1.38;1.02;;;14.70;99.90;;;;;;5033994;28;20052;-53
2022/06/08 02:49:07;;;;;;;1.40;1.20;;;14.60;99.90;;;;;;5032635;28;20093;-52
2022/06/08 02:51:34;;;;;;;4.40;1.15;;;14.60;99.90;;;;;;5032841;28;20372;-52
2022/06/08 02:54:04;;;;;;;3.25;0.90;;;14.70;99.90;;;;;;5032464;28;20089;-52
2022/06/08 02:56:45;;;;;;;3.65;0.80;;;14.60;99.90;;;;;;5032480;28;20029;-53
2022/06/08 02:59:29;;;;;;;11.35;1.23;;;14.70;99.90;;;;;;5033727;28;20021;-53
2022/06/08 03:02:09;;;;;;;1.45;0.93;;;14.70;99.90;;;;;;5033579;28;20034;-53
2022/06/08 03:05:08;;;;;;;3.88;1.10;;;14.70;99.90;;;;;;5033431;28;20029;-51
2022/06/08 03:07:44;;;;;;;8.05;1.42;;;14.80;99.90;;;;;;5032221;28;20451;-54
2022/06/08 03:10:13;;;;;;;3.45;1.17;;;14.70;99.90;;;;;;5032981;28;20136;-52
2022/06/08 03:12:44;;;;;;;2.88;1.02;;;14.80;99.90;;;;;;5032081;28;20365;-52
2022/06/08 03:15:14;;;;;;;8.97;1.17;;;14.90;99.90;;;;;;5032074;28;20039;-52
2022/06/08 03:17:39;;;;;;;3.55;1.17;;;15.00;99.90;;;;;;5033433;28;20025;-53
2022/06/08 03:20:09;;;;;;;3.33;1.35;;;15.10;99.90;;;;;;5033411;28;20024;-52
2022/06/08 03:22:35;;;;;;;4.97;1.35;;;15.10;99.90;;;;;;5033158;28;20033;-52
2022/06/08 03:25:01;;;;;;;4.90;1.30;;;15.10;99.90;;;;;;5032307;28;20025;-56
2022/06/08 03:27:27;;;;;;;3.05;1.25;;;15.10;99.90;;;;;;5033193;28;20460;-55
2022/06/08 03:29:52;;;;;;;6.40;1.20;;;15.10;99.90;;;;;;5032187;28;20060;-55
2022/06/08 03:32:18;;;;;;;2.13;1.20;;;15.20;99.90;;;;;;5031820;28;20017;-52
2022/06/08 03:34:44;;;;;;;2.80;1.40;;;15.30;99.90;;;;;;5031953;28;20026;-54
2022/06/08 03:37:09;;;;;;;1.70;1.08;;;15.40;99.90;;;;;;5031911;28;20025;-55
2022/06/08 03:39:35;;;;;;;3.67;1.10;;;15.50;99.90;;;;;;5032841;28;20032;-55
2022/06/08 03:42:01;;;;;;;1.88;1.10;;;15.60;99.90;;;;;;5032962;28;20025;-56
2022/06/08 03:44:27;;;;;;;3.95;0.90;;;15.60;99.90;;;;;;5033504;28;20041;-52
2022/06/08 03:47:00;;;;;;;1.58;1.10;;;15.70;99.90;;;;;;5033024;28;20029;-54
2022/06/08 03:49:26;;;;;;;1.42;1.10;;;15.80;99.90;;;;;;5032062;28;20548;-53
2022/06/08 03:51:55;;;;;;;4.18;1.40;;;15.90;99.90;;;;;;5031487;28;20033;-53
2022/06/08 03:54:25;;;;;;;6.68;1.27;;;15.90;99.90;;;;;;5031995;28;20060;-55
2022/06/08 03:57:03;;;;;;;5.45;0.90;;;15.90;99.90;;;;;;5032363;28;20026;-54
2022/06/08 03:59:30;;;;;;;1.08;0.90;;;15.90;99.90;;;;;;5031602;28;20026;-54
2022/06/08 04:01:55;;;;;;;3.30;0.98;;;16.00;99.90;;;;;;5032815;28;20029;-53
2022/06/08 04:04:21;;;;;;;6.28;1.83;;;15.90;99.90;;;;;;5032744;28;20036;-56
2022/06/08 04:06:48;;;;;;;1.77;0.90;;;15.90;99.90;;;;;;5031515;28;20075;-57
2022/06/08 04:09:13;;;;;;;3.00;1.27;;;15.90;99.90;;;;;;5032598;28;20029;-56
2022/06/08 04:11:39;;;;;;;5.07;1.10;;;15.90;99.90;;;;;;5031388;28;20029;-53
2022/06/08 04:14:05;;;;;;;4.38;1.40;;;16.00;99.90;;;;;;5032904;28;20108;-55
2022/06/08 04:16:30;;;;;;;2.55;1.23;;;16.00;99.90;;;;;;5031318;28;20022;-53
2022/06/08 04:18:56;;;;;;;2.10;0.90;;;16.10;99.90;;;;;;5031140;28;20395;-57
2022/06/08 04:21:22;;;;;;;1.35;0.85;;;16.20;99.90;;;;;;5014356;28;20492;-52
2022/06/08 04:23:48;;;;;;;3.17;1.17;;;16.40;99.90;;;;;;5015344;28;20022;-55
2022/06/08 04:26:15;;;;;;;4.38;1.27;;;16.50;99.90;;;;;;5015764;28;20033;-53
2022/06/08 04:28:42;;;;;;;6.47;1.38;;;16.50;99.90;;;;;;5017461;28;20033;-55
2022/06/08 04:31:08;;;;;;;1.83;1.15;;;16.50;99.90;;;;;;5015425;28;20037;-53
2022/06/08 04:33:34;;;;;;;5.70;1.00;;;16.50;99.90;;;;;;5016801;28;20022;-51
2022/06/08 04:36:00;;;;;;;8.27;1.42;;;16.60;99.90;;;;;;5015800;28;20029;-53
2022/06/08 04:38:26;;;;;;;0.80;0.80;;;16.70;99.90;;;;;;5015555;28;20030;-53
2022/06/08 04:40:52;;;;;;;3.78;1.15;;;16.80;99.90;;;;;;5017301;28;20346;-50
2022/06/08 04:43:19;;;;;;;3.47;1.55;;;16.70;99.90;;;;;;5015820;28;20032;-54
2022/06/08 04:45:44;;;;;;;1.73;1.02;;;16.70;99.90;;;;;;5015390;28;20076;-54
2022/06/08 04:48:11;;;;;;;2.03;1.50;;;16.80;99.90;;;;;;5015963;28;20026;-55
2022/06/08 04:50:37;;;;;;;2.30;1.20;;;16.80;99.90;;;;;;5017461;28;20022;-52
2022/06/08 04:53:03;;;;;;;5.25;1.42;;;16.90;99.90;;;;;;5015728;28;20022;-54
2022/06/08 04:55:29;;;;;;;4.70;1.15;;;17.00;99.90;;;;;;5015432;28;20495;-53
2022/06/08 04:57:54;;;;;;;3.53;1.35;;;17.10;99.90;;;;;;5015198;28;20029;-52
2022/06/08 05:00:22;;;;;;;5.38;1.60;;;17.10;99.90;;;;;;5016372;28;20169;-51
2022/06/08 05:02:50;;;;;;;5.90;1.50;;;17.00;99.90;;;;;;5015069;28;20464;-56
2022/06/08 05:05:26;;;;;;;1.98;1.52;;;17.00;99.90;;;;;;5015422;28;20025;-52
2022/06/08 05:07:53;;;;;;;3.08;1.27;;;17.10;99.90;;;;;;5016276;28;20017;-54
2022/06/08 05:10:21;;;;;;;2.58;1.30;;;17.00;99.90;;;;;;5014966;28;20036;-53
2022/06/08 05:12:47;;;;;;;4.50;1.73;;;17.20;99.90;;;;;;5014818;28;20481;-53
2022/06/08 05:15:22;;;;;;;3.10;1.23;;;17.30;99.90;;;;;;5016036;28;20026;-52
2022/06/08 05:17:48;;;;;;;3.33;1.45;;;17.40;99.90;;;;;;5014914;28;20026;-55
2022/06/08 05:20:16;;;;;;;7.25;2.05;;;17.30;99.90;;;;;;5015963;28;20018;-54
2022/06/08 05:22:44;;;;;;;4.78;1.38;;;17.20;99.90;;;;;;5016034;28;20029;-53
2022/06/08 05:25:12;;;;;;;2.33;1.63;;;17.20;99.90;;;;;;5014691;28;20173;-57
2022/06/08 05:27:38;;;;;;;4.72;1.70;;;17.40;99.90;;;;;;5014666;28;20121;-53
2022/06/08 05:30:06;;;;;;;6.07;1.80;;;17.60;99.90;;;;;;5016159;28;20172;-54
2022/06/08 05:32:31;;;;;;;3.25;1.67;;;17.60;99.90;;;;;;5014584;28;20030;-52
2022/06/08 05:34:57;;;;;;;5.68;1.75;;;17.60;99.90;;;;;;5014637;28;20037;-52
2022/06/08 05:37:23;;;;;;;5.32;2.15;;;17.50;99.90;;;;;;5015635;28;20028;-55
2022/06/08 05:39:49;;;;;;;2.58;2.00;;;17.60;99.90;;;;;;5015771;28;20100;-55
2022/06/08 05:42:14;;;;;;;9.68;3.55;;;17.40;99.90;;;;;;5014380;28;20045;-57
2022/06/08 05:44:40;;;;;;;9.77;4.03;;;17.30;99.90;;;;;;5014643;28;20033;-55
2022/06/08 05:47:06;;;;;;;8.98;5.22;;;17.40;99.90;;;;;;5015403;28;20026;-54
2022/06/08 05:49:33;;;;;;;14.20;6.30;;;17.40;99.90;;;;;;5014517;28;20022;-57
2022/06/08 05:51:59;;;;;;;10.07;6.53;;;17.60;99.90;;;;;;5014767;28;20117;-56
2022/06/08 05:54:25;;;;;;;14.40;7.50;;;17.70;99.90;;;;;;5015411;28;20061;-55
2022/06/08 05:56:50;;;;;;;10.43;6.70;;;17.90;99.90;;;;;;5014126;28;20049;-54
2022/06/08 05:59:16;;;;;;;13.70;6.85;;;18.10;99.90;;;;;;5030849;28;20049;-53
2022/06/08 06:01:42;;;;;;;11.90;5.55;;;18.00;99.90;;;;;;5030368;28;20026;-53
2022/06/08 06:04:08;;;;;;;14.80;6.35;;;18.20;99.90;;;;;;5013965;28;20113;-52
2022/06/08 06:06:34;;;;;;;10.27;5.85;;;18.10;99.90;;;;;;5015230;28;20025;-56
2022/06/08 06:09:01;;;;;;;9.00;5.75;;;18.00;99.90;;;;;;5013849;28;20112;-53
2022/06/08 06:11:27;;;;;;;13.73;6.50;;;18.00;99.90;;;;;;5014105;28;20018;-53
2022/06/08 06:13:53;;;;;;;10.13;6.60;;;17.90;99.90;;;;;;5014909;28;20022;-51
2022/06/08 06:16:19;;;;;;;11.70;7.38;;;18.10;99.90;;;;;;5014985;28;20056;-58
2022/06/08 06:18:44;;;;;;;11.77;6.90;;;18.20;99.90;;;;;;5013747;28;20104;-54
2022/06/08 06:21:20;;;;;;;20.92;7.00;;;18.20;99.90;;;;;;5013993;28;20062;-52
2022/06/08 06:23:46;;;;;;;14.60;7.90;;;18.20;99.90;;;;;;5014760;28;20018;-53
2022/06/08 06:26:11;;;;;;;15.00;7.05;;;18.30;99.90;;;;;;5030048;28;20072;-53
2022/06/08 06:28:37;;;;;;;10.90;7.28;;;18.30;99.90;;;;;;5014720;28;20033;-51
2022/06/08 06:31:03;;;;;;;19.15;7.53;;;18.50;99.90;;;;;;5013411;28;20026;-51
2022/06/08 06:33:28;;;;;;;17.25;7.82;;;18.70;99.90;;;;;;5014574;28;20124;-51
2022/06/08 06:35:56;;;;;;;12.88;6.47;;;18.90;99.90;;;;;;5014221;28;20125;-52
2022/06/08 06:38:21;;;;;;;20.23;6.85;;;19.30;99.90;;;;;;5014827;28;20132;-52
2022/06/08 06:40:47;;;;;;;12.85;7.50;;;19.80;99.90;;;;;;5014792;28;20101;-56
2022/06/08 06:43:13;;;;;;;13.25;7.13;;;19.90;99.90;;;;;;5013251;28;20024;-51
2022/06/08 06:45:39;;;;;;;12.07;6.05;;;20.10;99.90;;;;;;5029279;28;20026;-54
2022/06/08 06:48:05;;;;;;;10.98;6.30;;;20.30;99.90;;;;;;5014680;28;20030;-52
2022/06/08 06:50:31;;;;;;;12.27;6.07;;;20.50;99.90;;;;;;5030699;28;20038;-55
2022/06/08 06:52:59;;;;;;;9.27;5.95;;;21.00;99.90;;;;;;5014230;28;20033;-53
2022/06/08 06:55:29;;;;;;;10.77;6.72;;;21.50;99.90;;;;;;5014475;28;20112;-56
2022/06/08 06:57:56;;;;;;;13.55;6.63;;;21.70;99.90;;;;;;5029493;28;20032;-57
2022/06/08 07:00:23;;;;;;;9.07;5.90;;;22.00;99.90;;;;;;5014201;28;20029;-54
2022/06/08 07:02:48;;;;;;;12.73;7.45;;;23.10;99.90;;;;;;5014089;28;20028;-51
2022/06/08 07:05:24;;;;;;;10.70;7.15;;;23.70;99.90;;;;;;5013134;28;20108;-49
2022/06/08 07:07:50;;;;;;;7.22;5.00;;;24.80;99.90;;;;;;5014027;28;20109;-50
2022/06/08 07:10:16;;;;;;;7.93;6.05;;;26.00;99.90;;;;;;5014096;28;20054;-49
2022/06/08 07:12:42;;;;;;;9.38;7.05;;;27.40;99.90;;;;;;5012685;28;20033;-50
2022/06/08 07:15:11;;;;;;;10.52;7.22;;;27.40;99.90;;;;;;5013870;28;20401;-52
2022/06/08 07:17:36;;;;;;;12.32;7.95;;;26.90;99.90;;;;;;5012948;28;20479;-49
2022/06/08 07:20:04;;;;;;;11.07;8.18;;;25.90;99.90;;;;;;5020492;28;20049;-52
2022/06/08 07:22:30;;;;;;;12.45;8.43;;;25.80;99.90;;;;;;5032553;28;20025;-52
2022/06/08 07:24:56;;;;;;;9.50;7.80;;;25.90;99.90;;;;;;5033605;28;20053;-53
2022/06/08 07:27:22;;;;;;;9.40;8.18;;;26.50;99.90;;;;;;5032720;28;20026;-54
2022/06/08 07:29:49;;;;;;;10.68;7.88;;;27.00;99.90;;;;;;5033435;28;20044;-52
2022/06/08 07:32:15;;;;;;;10.55;7.70;;;26.30;99.90;;;;;;5032140;28;20399;-50
2022/06/08 07:38:40;;;;;;;8.60;7.07;;;26.00;99.90;;;;;;5033805;28;20068;-53
2022/06/08 07:41:06;;;;;;;9.63;7.15;;;26.80;99.90;;;;;;5034105;28;20116;-56
2022/06/08 07:43:32;;;;;;;8.45;6.50;;;27.00;99.90;;;;;;5032385;28;20025;-54
2022/06/08 07:45:57;;;;;;;10.68;6.78;;;27.70;99.90;;;;;;5032056;28;20153;-49
2022/06/08 07:51:09;;;;;;;7.03;5.25;;;28.60;99.90;;;;;;5033796;28;20041;-52
2022/06/08 07:53:35;;;;;;;6.97;6.10;;;30.00;99.90;;;;;;5033072;28;20025;-55
2022/06/08 07:56:01;;;;;;;7.40;5.93;;;30.10;99.90;;;;;;5033576;28;20032;-53
2022/06/08 07:58:26;;;;;;;4.88;4.45;;;28.80;99.90;;;;;;5036369;28;20025;-54
2022/06/08 08:00:53;;;;;;;6.72;4.10;;;28.50;99.90;;;;;;5036130;28;20021;-51
2022/06/08 08:03:20;;;;;;;6.45;4.28;;;29.30;99.90;;;;;;5035996;28;20116;-54
2022/06/08 08:05:47;;;;;;;5.85;4.00;;;29.90;99.90;;;;;;5035942;28;20072;-51
2022/06/08 08:11:34;;;;;;;8.30;3.30;;;30.60;99.90;;;;;;5037345;28;20064;-54
2022/06/08 08:14:00;;;;;;;5.75;3.63;;;30.70;99.90;;;;;;5036920;28;20049;-55
2022/06/08 08:16:25;;;;;;;6.45;3.40;;;30.10;99.90;;;;;;5032394;28;20362;-52
2022/06/08 08:18:51;;;;;;;6.43;3.53;;;30.10;99.90;;;;;;5017185;28;20076;-52
2022/06/08 08:21:16;;;;;;;2.90;2.05;;;30.20;99.90;;;;;;5016260;28;20029;-50
2022/06/08 08:23:42;;;;;;;3.22;2.25;;;30.30;99.90;;;;;;5017090;28;20018;-54
2022/06/08 08:26:08;;;;;;;3.92;2.80;;;30.00;99.90;;;;;;5015749;28;20033;-56
2022/06/08 08:28:33;;;;;;;4.95;2.70;;;30.30;99.90;;;;;;5018255;28;20056;-56
2022/06/08 08:34:21;;;;;;;3.17;2.30;;;30.80;99.00;;;;;;5017032;28;20052;-53
2022/06/08 08:36:47;;;;;;;2.70;2.50;;;30.80;99.20;;;;;;5022477;28;20018;-56
2022/06/08 08:39:19;;;;;;;4.95;2.20;;;30.90;99.10;;;;;;5035236;28;20032;-55
2022/06/08 08:44:40;;;;;;;6.85;2.53;;;30.90;98.10;;;;;;5036666;28;20057;-56
2022/06/08 08:47:45;;;;;;;3.22;1.80;;;30.70;98.60;;;;;;5032132;28;20044;-56
2022/06/08 08:50:16;;;;;;;2.67;1.95;;;30.60;98.40;;;;;;5003010;28;20045;-56
2022/06/08 08:52:48;;;;;;;3.85;1.40;;;30.80;96.70;;;;;;5025180;28;20025;-57
2022/06/08 08:55:56;;;;;;;4.10;1.67;;;29.90;97.50;;;;;;5035173;28;20027;-57
2022/06/08 08:58:42;;;;;;;3.33;1.42;;;28.90;98.50;;;;;;5036275;28;20018;-59
2022/06/08 09:01:19;;;;;;;1.65;1.30;;;28.50;99.90;;;;;;5034897;28;20029;-59
2022/06/08 09:03:55;;;;;;;2.95;1.85;;;29.10;99.90;;;;;;5034776;28;20072;-60
2022/06/08 09:09:43;;;;;;;8.05;2.03;;;26.40;99.90;;;;;;5035986;28;20033;-58
2022/06/08 09:12:15;;;;;;;8.77;1.90;;;25.30;99.90;;;;;;5034210;28;20033;-52
2022/06/08 09:14:59;;;;;;;4.05;1.90;;;25.00;99.90;;;;;;5035731;28;20021;-58
2022/06/08 09:17:37;;;;;;;3.33;1.70;;;24.50;99.90;;;;;;5034960;28;20045;-56
2022/06/08 09:20:35;;;;;;;5.07;1.70;;;23.90;99.90;;;;;;5034437;28;20368;-56
2022/06/08 09:26:25;;;;;;;4.88;2.38;;;22.90;99.90;;;;;;5035783;28;20033;-58
2022/06/08 09:29:08;;;;;;;2.95;1.42;;;22.70;99.90;;;;;;5034720;28;20056;-58
2022/06/08 09:31:42;;;;;;;3.30;1.65;;;23.10;99.90;;;;;;5034327;28;20041;-54
2022/06/08 09:34:17;;;;;;;4.70;1.90;;;23.20;99.90;;;;;;5035308;28;20108;-58
2022/06/08 09:36:43;;;;;;;6.15;1.98;;;23.40;99.90;;;;;;5035355;28;20032;-56
2022/06/08 09:39:19;;;;;;;2.92;1.92;;;23.40;99.90;;;;;;5034209;28;20124;-56
2022/06/08 09:41:51;;;;;;;6.22;2.65;;;23.60;99.90;;;;;;5034207;28;20056;-58
2022/06/08 09:44:29;;;;;;;9.35;2.08;;;23.40;99.90;;;;;;5034687;28;20116;-58
2022/06/08 09:53:34;;;;;;;9.35;4.70;;;23.90;99.90;;;;;;5035199;28;20561;-54
2022/06/08 09:56:13;;;;;;;7.82;1.95;;;24.10;99.90;;;;;;5033690;28;20474;-56
2022/06/08 09:58:55;;;;;;;5.07;2.10;;;24.10;99.90;;;;;;5034997;28;20104;-56
2022/06/08 10:01:52;;;;;;;3.08;1.30;;;24.20;99.90;;;;;;5033790;28;20025;-56
2022/06/08 10:04:38;;;;;;;3.58;1.38;;;24.10;99.90;;;;;;5034947;28;20037;-57
2022/06/08 10:07:17;;;;;;;4.60;1.58;;;23.90;99.90;;;;;;5033637;28;20049;-57
2022/06/08 10:10:11;;;;;;;3.92;1.13;;;23.80;99.90;;;;;;5034891;28;20018;-57
2022/06/08 10:12:52;;;;;;;2.03;1.30;;;24.20;99.90;;;;;;5022866;28;20021;-60
2022/06/08 10:15:24;;;;;;;3.65;1.10;;;24.20;99.90;;;;;;5028088;28;20488;-61
2022/06/08 10:18:15;;;;;;;5.80;1.27;;;24.20;99.90;;;;;;5034290;28;20025;-60
2022/06/08 10:21:15;;;;;;;2.78;1.13;;;24.10;99.90;;;;;;5007437;28;20129;-61
2022/06/08 10:23:47;;;;;;;2.78;1.25;;;24.40;99.90;;;;;;5020206;28;20084;-61
2022/06/08 10:26:29;;;;;;;4.07;1.10;;;24.50;99.90;;;;;;5034524;28;20492;-61
2022/06/08 10:29:26;;;;;;;2.95;1.00;;;24.60;99.90;;;;;;5033243;28;20047;-60
2022/06/08 10:32:22;;;;;;;5.72;1.52;;;25.30;99.90;;;;;;5024475;28;20132;-60
2022/06/08 10:34:54;;;;;;;2.67;0.98;;;25.90;99.90;;;;;;5033422;28;20030;-61
2022/06/08 10:37:38;;;;;;;3.58;1.30;;;26.60;99.90;;;;;;5034331;28;20036;-60
2022/06/08 10:40:13;;;;;;;3.70;1.15;;;26.00;99.90;;;;;;5034195;28;20033;-60
2022/06/08 10:42:43;;;;;;;3.13;0.95;;;26.20;99.90;;;;;;5032803;28;20079;-60
2022/06/08 10:45:27;;;;;;;2.95;0.65;;;26.50;99.90;;;;;;5032819;28;20030;-60
2022/06/08 10:47:58;;;;;;;2.50;1.05;;;26.80;99.90;;;;;;5026072;28;20033;-61
2022/06/08 10:50:30;;;;;;;2.72;1.17;;;27.10;99.90;;;;;;5044504;28;20029;-61
2022/06/08 10:56:38;;;;;;;3.88;0.70;;;27.00;99.90;;;;;;5033892;28;20040;-61
2022/06/08 10:59:07;;;;;;;7.40;1.02;;;27.00;99.90;;;;;;5032443;28;20033;-60
2022/06/08 11:01:48;;;;;;;4.35;0.68;;;26.90;99.90;;;;;;5033806;28;20025;-61
2022/06/08 11:04:32;;;;;;;5.53;0.90;;;26.80;99.90;;;;;;5032638;28;20032;-61
2022/06/08 11:07:11;;;;;;;3.80;1.38;;;26.60;99.90;;;;;;5033846;28;20025;-60
2022/06/08 11:09:37;;;;;;;3.90;1.02;;;26.60;99.90;;;;;;5033809;28;20018;-60
2022/06/08 11:12:46;;;;;;;2.45;0.98;;;26.60;99.90;;;;;;5033770;28;20022;-59
2022/06/08 11:15:35;;;;;;;3.22;1.13;;;26.30;99.90;;;;;;5027578;28;20056;-61
2022/06/08 11:18:14;;;;;;;6.25;0.98;;;26.20;99.90;;;;;;5033666;28;20032;-60
2022/06/08 11:20:51;;;;;;;5.65;1.17;;;26.00;99.90;;;;;;5033740;28;20026;-60
2022/06/08 11:23:29;;;;;;;2.75;1.30;;;25.90;99.90;;;;;;5032401;28;20026;-60
2022/06/08 11:26:25;;;;;;;4.53;0.82;;;26.10;99.90;;;;;;5032655;28;20033;-61
2022/06/08 11:29:18;;;;;;;2.47;1.02;;;26.30;99.90;;;;;;5032633;28;20025;-61
2022/06/08 11:31:56;;;;;;;2.50;0.80;;;26.60;99.90;;;;;;5031638;28;20033;-60
2022/06/08 11:34:28;;;;;;;5.47;0.90;;;26.40;99.90;;;;;;5032202;28;20388;-60
2022/06/08 11:37:07;;;;;;;2.97;1.08;;;26.20;99.90;;;;;;5032219;28;20032;-61
2022/06/08 11:39:55;;;;;;;2.40;1.08;;;26.30;99.90;;;;;;5033246;28;20071;-61
2022/06/08 11:42:31;;;;;;;4.90;1.20;;;26.20;99.90;;;;;;5032048;28;20021;-61
2022/06/08 11:45:23;;;;;;;7.32;0.90;;;26.20;99.90;;;;;;5033481;28;20048;-61
2022/06/08 11:47:51;;;;;;;7.07;1.58;;;26.40;99.90;;;;;;5033532;28;20033;-61
2022/06/08 11:50:29;;;;;;;4.70;1.10;;;26.40;99.90;;;;;;5031223;28;20079;-60
2022/06/08 11:53:05;;;;;;;3.70;1.30;;;26.30;99.90;;;;;;5032254;28;20092;-61
2022/06/08 11:55:46;;;;;;;3.10;1.20;;;26.10;99.90;;;;;;5031864;28;20026;-60
2022/06/08 11:58:23;;;;;;;6.72;0.90;;;25.80;99.90;;;;;;5033325;28;20022;-59
2022/06/08 12:01:05;;;;;;;6.20;1.40;;;25.80;99.90;;;;;;5031079;28;20022;-59
2022/06/08 12:03:38;;;;;;;7.63;1.27;;;26.00;99.90;;;;;;5014906;28;20121;-61
2022/06/08 12:06:18;;;;;;;4.50;1.52;;;26.10;99.90;;;;;;5028619;28;20061;-61
2022/06/08 12:09:01;;;;;;;3.78;0.90;;;26.00;99.90;;;;;;5028717;28;20141;-59
2022/06/08 12:11:31;;;;;;;3.13;1.13;;;26.00;99.90;;;;;;5014200;28;20116;-59
2022/06/08 12:14:03;;;;;;;3.85;1.30;;;26.10;99.90;;;;;;5011983;28;20026;-60
2022/06/08 12:16:36;;;;;;;5.45;1.35;;;26.10;99.90;;;;;;5012676;28;20484;-60
2022/06/08 12:19:16;;;;;;;1.55;0.75;;;25.90;99.90;;;;;;5013295;28;20026;-61
2022/06/08 12:21:46;;;;;;;2.83;1.13;;;25.90;99.90;;;;;;5013308;28;20064;-60
2022/06/08 12:24:14;;;;;;;7.93;1.20;;;25.80;99.90;;;;;;5011987;28;20026;-61
2022/06/08 12:27:21;;;;;;;14.50;2.13;;;25.70;99.90;;;;;;5011859;28;20058;-61
2022/06/08 12:30:20;;;;;;;3.55;1.08;;;25.60;99.90;;;;;;5012668;28;20034;-60
2022/06/08 12:33:01;;;;;;;4.30;1.10;;;25.40;99.90;;;;;;5012985;28;20026;-60
2022/06/08 12:35:38;;;;;;;3.33;1.17;;;25.30;99.90;;;;;;5012974;28;20380;-60
2022/06/08 12:38:18;;;;;;;5.18;1.85;;;25.30;99.90;;;;;;5013244;28;20018;-60
2022/06/08 12:41:02;;;;;;;6.70;1.50;;;25.20;99.90;;;;;;5015203;28;20052;-61
2022/06/08 12:43:52;;;;;;;3.95;1.38;;;25.00;99.90;;;;;;5034355;28;20110;-61
2022/06/08 12:46:49;;;;;;;5.72;1.30;;;24.90;99.90;;;;;;5032910;28;20025;-60
2022/06/08 12:49:25;;;;;;;5.60;0.95;;;24.60;99.90;;;;;;5017328;28;20026;-61
2022/06/08 12:55:18;;;;;;;4.53;1.10;;;24.60;99.90;;;;;;5036099;28;20032;-58
2022/06/08 12:57:46;;;;;;;4.25;1.20;;;24.60;99.90;;;;;;5016127;28;20018;-60
2022/06/08 13:00:30;;;;;;;6.93;1.33;;;24.60;99.90;;;;;;5036059;28;20101;-61
2022/06/08 13:03:01;;;;;;;7.13;1.38;;;24.40;99.90;;;;;;5036184;28;20037;-61
2022/06/08 13:05:35;;;;;;;2.75;0.80;;;24.40;99.90;;;;;;5028643;28;20092;-61
2022/06/08 13:08:28;;;;;;;4.38;1.30;;;24.40;99.90;;;;;;5025521;28;20025;-60
2022/06/08 13:11:04;;;;;;;2.03;0.80;;;24.40;99.90;;;;;;5034639;28;20056;-60
2022/06/08 13:13:39;;;;;;;7.00;1.30;;;24.30;99.90;;;;;;5035048;28;20029;-56
2022/06/08 13:16:28;;;;;;;5.22;0.98;;;24.30;99.90;;;;;;5034922;28;20029;-61
2022/06/08 13:18:55;;;;;;;3.67;0.88;;;24.20;99.90;;;;;;5035966;28;20029;-56
2022/06/08 13:21:21;;;;;;;6.35;1.25;;;24.20;99.90;;;;;;5034857;28;20095;-54
2022/06/08 13:23:48;;;;;;;5.80;1.00;;;24.10;99.90;;;;;;5034705;28;20100;-57
2022/06/08 13:26:22;;;;;;;5.32;1.33;;;24.10;99.90;;;;;;5034847;28;20051;-59
2022/06/08 13:28:48;;;;;;;4.20;1.27;;;24.10;99.90;;;;;;5035827;28;20029;-56
2022/06/08 13:31:13;;;;;;;5.13;1.33;;;24.10;99.90;;;;;;5034352;28;20026;-52
2022/06/08 13:36:32;;;;;;;5.10;1.20;;;24.00;99.90;;;;;;5027393;28;20044;-55
2022/06/08 13:39:14;;;;;;;5.07;1.15;;;24.00;99.90;;;;;;5034224;28;20059;-57
2022/06/08 13:41:41;;;;;;;;;;;24.00;99.90;;;;;;5031463;28;20041;-51
2022/06/08 13:44:27;;;;;;;4.95;1.08;;;23.80;99.90;;;;;;5014327;28;19912;-51
2022/06/08 13:47:01;;;;;;;2.85;0.85;;;23.70;99.90;;;;;;5014279;28;20046;-54
2022/06/08 13:49:28;;;;;;;3.03;0.98;;;23.50;99.90;;;;;;5014749;28;20057;-52
2022/06/08 13:51:54;;;;;;;3.45;0.90;;;23.30;99.90;;;;;;5014045;28;20485;-54
2022/06/08 13:54:30;;;;;;;2.58;0.93;;;23.30;99.90;;;;;;5014340;28;20068;-53
2022/06/08 13:56:57;;;;;;;5.07;1.17;;;23.30;99.90;;;;;;5014293;28;20026;-53